createdAt,value
2018-11-20T00:01:53.454Z,4.80
2018-11-20T00:04:20.158Z,4.70
2018-11-20T00:06:46.142Z,4.70
2018-11-20T00:09:12.153Z,4.70
2018-11-20T00:11:38.879Z,4.80
2018-11-20T00:14:04.821Z,4.80
2018-11-20T00:16:30.800Z,4.80
2018-11-20T00:18:56.745Z,4.80
2018-11-20T00:21:23.466Z,4.70
2018-11-20T00:23:49.430Z,4.70
2018-11-20T00:26:15.419Z,4.80
2018-11-20T00:28:41.381Z,4.80
2018-11-20T00:31:07.355Z,4.80
2018-11-20T00:33:33.319Z,4.80
2018-11-20T00:35:59.266Z,4.60
2018-11-20T00:38:25.237Z,4.80
2018-11-20T00:40:51.949Z,4.80
2018-11-20T00:43:17.935Z,4.80
2018-11-20T00:45:43.891Z,4.70
2018-11-20T00:48:09.885Z,4.70
2018-11-20T00:50:35.815Z,4.80
2018-11-20T00:53:01.936Z,4.80
2018-11-20T00:55:27.935Z,4.70
2018-11-20T00:57:54.624Z,4.80
2018-11-20T01:00:20.608Z,4.80
2018-11-20T01:02:46.598Z,4.80
2018-11-20T01:05:12.554Z,4.70
2018-11-20T01:07:38.519Z,4.70
2018-11-20T01:10:04.516Z,4.70
2018-11-20T01:12:30.463Z,4.70
2018-11-20T01:14:56.431Z,4.70
2018-11-20T01:17:23.150Z,4.70
2018-11-20T01:19:49.859Z,4.70
2018-11-20T01:22:15.832Z,4.70
2018-11-20T01:24:42.520Z,4.70
2018-11-20T01:27:08.469Z,4.80
2018-11-20T01:29:35.210Z,4.60
2018-11-20T01:32:01.182Z,4.70
2018-11-20T01:34:27.185Z,4.70
2018-11-20T01:36:53.165Z,4.70
2018-11-20T01:39:19.133Z,4.70
2018-11-20T01:41:45.114Z,4.70
2018-11-20T01:44:11.090Z,4.60
2018-11-20T01:46:37.039Z,4.60
2018-11-20T01:49:03.027Z,4.60
2018-11-20T01:51:29.111Z,4.60
2018-11-20T01:53:54.995Z,4.70
2018-11-20T01:56:20.962Z,4.60
2018-11-20T01:58:47.660Z,4.60
2018-11-20T02:01:13.658Z,4.60
2018-11-20T02:03:39.628Z,4.60
2018-11-20T02:06:05.622Z,4.60
2018-11-20T02:08:31.601Z,4.60
2018-11-20T02:10:58.305Z,4.50
2018-11-20T02:13:24.308Z,4.50
2018-11-20T02:15:50.269Z,4.50
2018-11-20T02:18:16.292Z,4.50
2018-11-20T02:20:42.278Z,4.60
2018-11-20T02:23:08.267Z,4.60
2018-11-20T02:25:34.975Z,4.50
2018-11-20T02:28:00.969Z,4.50
2018-11-20T02:30:26.941Z,4.60
2018-11-20T02:32:53.645Z,4.60
2018-11-20T02:35:19.607Z,4.60
2018-11-20T02:37:46.319Z,4.60
2018-11-20T02:40:12.306Z,4.60
2018-11-20T02:42:38.269Z,4.60
2018-11-20T02:45:04.262Z,4.70
2018-11-20T02:47:30.239Z,4.70
2018-11-20T02:49:57.301Z,4.70
2018-11-20T02:52:23.325Z,4.70
2018-11-20T02:54:49.286Z,4.70
2018-11-20T02:57:15.270Z,4.70
2018-11-20T02:59:41.247Z,4.70
2018-11-20T03:02:07.258Z,4.70
2018-11-20T03:04:33.217Z,4.70
2018-11-20T03:06:59.982Z,4.70
2018-11-20T03:09:25.952Z,4.70
2018-11-20T03:11:51.931Z,4.70
2018-11-20T03:14:17.916Z,4.70
2018-11-20T03:16:43.900Z,4.70
2018-11-20T03:19:09.851Z,4.70
2018-11-20T03:21:35.817Z,4.70
2018-11-20T03:24:01.810Z,4.70
2018-11-20T03:26:27.776Z,4.70
2018-11-20T03:28:53.759Z,4.80
2018-11-20T03:31:20.477Z,4.80
2018-11-20T03:33:46.456Z,4.80
2018-11-20T03:36:12.494Z,4.80
2018-11-20T03:38:39.147Z,4.80
2018-11-20T03:41:05.123Z,4.80
2018-11-20T03:43:31.819Z,4.80
2018-11-20T03:45:57.801Z,4.80
2018-11-20T03:48:23.772Z,4.80
2018-11-20T03:50:49.730Z,4.80
2018-11-20T03:53:16.425Z,4.90
2018-11-20T03:55:42.409Z,4.90
2018-11-20T03:58:08.370Z,4.90
2018-11-20T04:00:34.348Z,4.90
2018-11-20T04:03:00.297Z,4.90
2018-11-20T04:05:26.287Z,4.90
2018-11-20T04:07:52.231Z,4.90
2018-11-20T04:10:18.255Z,4.90
2018-11-20T04:12:44.204Z,4.90
2018-11-20T04:15:10.180Z,4.90
2018-11-20T04:17:36.183Z,4.90
2018-11-20T04:20:02.886Z,4.90
2018-11-20T04:22:28.861Z,4.90
2018-11-20T04:24:55.559Z,4.90
2018-11-20T04:27:21.558Z,4.90
2018-11-20T04:29:47.527Z,4.90
2018-11-20T04:32:14.264Z,5.00
2018-11-20T04:34:40.239Z,5.00
2018-11-20T04:37:06.207Z,5.10
2018-11-20T04:39:32.205Z,5.00
2018-11-20T04:41:58.180Z,5.00
2018-11-20T04:44:24.177Z,4.90
2018-11-20T04:46:50.887Z,5.00
2018-11-20T04:49:16.892Z,5.00
2018-11-20T04:51:42.865Z,4.90
2018-11-20T04:54:08.872Z,4.90
2018-11-20T04:56:34.846Z,4.90
2018-11-20T04:59:00.812Z,4.90
2018-11-20T05:01:26.872Z,4.90
2018-11-20T05:03:52.861Z,4.90
2018-11-20T05:06:18.862Z,4.90
2018-11-20T05:08:44.823Z,4.90
2018-11-20T05:11:11.605Z,4.90
2018-11-20T05:13:37.548Z,4.90
2018-11-20T05:16:03.517Z,4.90
2018-11-20T05:18:30.262Z,4.80
2018-11-20T05:20:56.970Z,4.80
2018-11-20T05:23:22.964Z,4.80
2018-11-20T05:25:48.921Z,4.80
2018-11-20T05:28:15.634Z,4.80
2018-11-20T05:30:41.596Z,4.70
2018-11-20T05:33:07.594Z,4.60
2018-11-20T05:35:33.558Z,4.70
2018-11-20T05:38:00.294Z,4.70
2018-11-20T05:40:26.325Z,4.70
2018-11-20T05:42:52.229Z,4.70
2018-11-20T05:45:18.973Z,4.80
2018-11-20T05:47:44.942Z,4.70
2018-11-20T05:50:10.953Z,4.80
2018-11-20T05:52:36.897Z,4.80
2018-11-20T05:55:02.920Z,4.80
2018-11-20T05:57:28.862Z,4.90
2018-11-20T05:59:54.836Z,4.90
2018-11-20T06:02:20.803Z,4.90
2018-11-20T06:04:46.776Z,4.90
2018-11-20T06:07:12.730Z,4.90
2018-11-20T06:09:38.695Z,4.90
2018-11-20T06:12:04.680Z,4.90
2018-11-20T06:14:30.634Z,4.90
2018-11-20T06:16:56.632Z,4.90
2018-11-20T06:19:22.969Z,4.90
2018-11-20T06:21:49.177Z,4.90
2018-11-20T06:24:15.124Z,4.80
2018-11-20T06:26:41.130Z,4.90
2018-11-20T06:29:07.095Z,4.80
2018-11-20T06:31:33.822Z,4.80
2018-11-20T06:33:59.809Z,4.80
2018-11-20T06:36:25.761Z,4.80
2018-11-20T06:38:51.740Z,4.80
2018-11-20T06:41:17.763Z,4.80
2018-11-20T06:43:44.461Z,4.70
2018-11-20T06:46:10.410Z,4.70
2018-11-20T06:48:36.428Z,4.70
2018-11-20T06:51:03.136Z,4.70
2018-11-20T06:53:29.159Z,4.70
2018-11-20T06:55:55.075Z,4.70
2018-11-20T06:58:21.040Z,4.70
2018-11-20T07:00:47.753Z,4.50
2018-11-20T07:03:14.470Z,4.50
2018-11-20T07:05:40.474Z,4.50
2018-11-20T07:08:06.678Z,4.50
2018-11-20T07:10:32.487Z,4.40
2018-11-20T07:12:59.194Z,4.30
2018-11-20T07:15:25.214Z,4.30
2018-11-20T07:17:51.153Z,4.50
2018-11-20T07:20:17.097Z,4.30
2018-11-20T07:22:43.898Z,4.20
2018-11-20T07:25:09.817Z,4.20
2018-11-20T07:27:35.798Z,4.20
2018-11-20T07:30:01.804Z,4.20
2018-11-20T07:32:27.742Z,4.20
2018-11-20T07:34:53.707Z,4.20
2018-11-20T07:37:19.820Z,4.20
2018-11-20T07:39:45.679Z,4.10
2018-11-20T07:42:12.386Z,4.10
2018-11-20T07:44:38.352Z,4.10
2018-11-20T07:47:05.050Z,4.10
2018-11-20T07:49:31.771Z,4.10
2018-11-20T07:51:57.723Z,4.10
2018-11-20T07:54:23.714Z,4.10
2018-11-20T07:56:49.655Z,4.10
2018-11-20T07:59:15.602Z,4.10
2018-11-20T08:01:41.601Z,4.10
2018-11-20T08:04:07.550Z,4.10
2018-11-20T08:06:33.544Z,4.10
2018-11-20T08:08:59.489Z,4.10
2018-11-20T08:11:25.430Z,4.10
2018-11-20T08:13:52.153Z,4.10
2018-11-20T08:16:18.108Z,4.10
2018-11-20T08:18:44.839Z,4.10
2018-11-20T08:21:11.534Z,4.10
2018-11-20T08:23:37.529Z,4.00
2018-11-20T08:26:03.624Z,4.10
2018-11-20T08:28:30.211Z,4.10
2018-11-20T08:30:56.175Z,4.10
2018-11-20T08:33:22.879Z,4.40
2018-11-20T08:35:48.851Z,4.20
2018-11-20T08:38:14.834Z,4.10
2018-11-20T08:40:40.785Z,4.20
2018-11-20T08:43:07.544Z,4.20
2018-11-20T08:45:33.492Z,4.20
2018-11-20T08:47:59.572Z,4.20
2018-11-20T08:50:25.453Z,4.10
2018-11-20T08:52:51.444Z,4.10
2018-11-20T08:55:17.410Z,4.10
2018-11-20T08:57:43.373Z,4.20
2018-11-20T09:00:10.095Z,4.20
2018-11-20T09:02:36.209Z,4.20
2018-11-20T09:05:02.022Z,4.20
2018-11-20T09:07:27.998Z,4.20
2018-11-20T09:09:54.032Z,4.20
2018-11-20T09:12:20.690Z,4.20
2018-11-20T09:14:46.672Z,4.20
2018-11-20T09:17:12.641Z,4.20
2018-11-20T09:19:38.641Z,4.10
2018-11-20T09:22:04.617Z,4.20
2018-11-20T09:24:31.325Z,4.10
2018-11-20T09:26:57.309Z,4.10
2018-11-20T09:29:23.252Z,4.20
2018-11-20T09:31:49.244Z,4.20
2018-11-20T09:34:15.987Z,4.20
2018-11-20T09:36:41.955Z,4.20
2018-11-20T09:39:07.909Z,4.20
2018-11-20T09:41:34.617Z,4.40
2018-11-20T09:44:00.590Z,4.30
2018-11-20T09:46:27.309Z,4.30
2018-11-20T09:48:53.272Z,4.30
2018-11-20T09:51:19.222Z,4.30
2018-11-20T09:53:45.193Z,4.30
2018-11-20T09:56:11.883Z,4.30
2018-11-20T09:58:37.830Z,4.30
2018-11-20T10:01:03.800Z,4.30
2018-11-20T10:03:29.787Z,4.30
2018-11-20T10:05:55.747Z,4.40
2018-11-20T10:08:21.699Z,4.40
2018-11-20T10:10:47.687Z,4.50
2018-11-20T10:13:13.629Z,4.50
2018-11-20T10:15:39.618Z,4.50
2018-11-20T10:18:05.668Z,4.50
2018-11-20T10:20:31.630Z,4.20
2018-11-20T10:22:57.608Z,4.30
2018-11-20T10:25:23.605Z,4.30
2018-11-20T10:27:50.320Z,4.30
2018-11-20T10:30:16.264Z,4.20
2018-11-20T10:32:43.001Z,4.30
2018-11-20T10:35:09.685Z,4.20
2018-11-20T10:37:35.635Z,4.20
2018-11-20T10:40:01.633Z,4.20
2018-11-20T10:42:27.581Z,4.20
2018-11-20T10:44:53.564Z,4.20
2018-11-20T10:47:19.526Z,4.20
2018-11-20T10:49:45.515Z,4.20
2018-11-20T10:52:11.470Z,4.20
2018-11-20T10:54:37.462Z,4.10
2018-11-20T10:57:03.431Z,4.20
2018-11-20T10:59:29.416Z,4.20
2018-11-20T11:01:55.416Z,4.20
2018-11-20T11:04:21.428Z,4.20
2018-11-20T11:06:47.657Z,4.20
2018-11-20T11:09:13.361Z,4.20
2018-11-20T11:11:40.220Z,4.20
2018-11-20T11:14:06.083Z,4.30
2018-11-20T11:16:32.088Z,4.20
2018-11-20T11:18:58.032Z,4.10
2018-11-20T11:21:23.976Z,4.20
2018-11-20T11:23:49.932Z,4.20
2018-11-20T11:26:15.887Z,4.10
2018-11-20T11:28:41.870Z,4.10
2018-11-20T11:31:08.547Z,4.20
2018-11-20T11:33:34.534Z,4.10
2018-11-20T11:36:00.484Z,4.20
2018-11-20T11:38:26.497Z,4.20
2018-11-20T11:40:53.195Z,4.10
2018-11-20T11:43:19.900Z,4.20
2018-11-20T11:45:45.882Z,4.10
2018-11-20T11:48:11.852Z,4.10
2018-11-20T11:50:37.807Z,4.10
2018-11-20T11:53:04.524Z,4.10
2018-11-20T11:55:30.465Z,4.10
2018-11-20T11:57:57.176Z,4.10
2018-11-20T12:00:23.141Z,4.10
